Alameda, New Mexico
Current Conditions -  °F | °C
As of 3:47 PM on Tuesday 25 Nov 2014 (Local Time) from KAEG Reporting Station
Few Clouds Few Clouds  
Wind Chill: 46°   Ceiling: Unl
Heat Index: 46°   Visibility: 10mi
Dew Point:   Wind: 0mph
Humidity: 16%   Direction: NA
Pressure: 30.27"   Gusts: NA
Location:  35.1991°N, 106.662°W
Report Text: KAEG 252247Z 00000KT 10SM FEW090 08/M17 A3027
Loading
Personal Weather Stations






























Interactive Weather Map New forecast layout! Learn more

10-Day Weather Forecast

Advertisements
Track Severe Weather on mobile